Airfield :
LOGIN :

Register | Disclaimer

   EN    FR    IT 

 










Legend :    VFR   Marginal VFR   IFR   Intensive IFR   Very Intensive IFR
Visi :
Ceiling :
>= 8 km
>= 3000ft
5 to 8 km
1000 to 3000 ft
1500m to 5 km
500 to 1000 ft
800 to 1500m
200 to 500 ft
< 800m
< 200 ft
Symbols :   Thunderstorms  Fog  Heavy snow  Heavy precipitations  Wind > 20 kt
SIGMETs :     Misc.  Thunderstorms  Icing  Turbulence  Mountain Waves  Volcanic Ashes






- Airport Elevation : 433 ft


LFOC - Chateaudun

CURRENT METAR :
  • 301530Z AUTO 19010KT 9999 FEW033 BKN068 19/11 Q1011

EXPIRED METARs :
  • 301500Z AUTO 19012KT 9999 FEW029 OVC068 20/11 Q1011 NOSIG
  • 301430Z AUTO 19011KT 9999 FEW025 OVC068 19/12 Q1011 NOSIG
  • 301400Z AUTO 18010KT CAVOK 19/13 Q1012 NOSIG
  • 301330Z AUTO 18012KT CAVOK 19/12 Q1012 NOSIG
  • 301300Z AUTO 18010KT CAVOK 19/11 Q1013 NOSIG
  • 301230Z AUTO 20012KT 9999 BKN047 OVC054 19/11 Q1013 NOSIG

TAF TAF LFOC
Valid from the 30 at 15:00 until the 01 at 15:00 UTC


301400Z 3015/0115 19010KT 9999 SCT025 BKN045
TEMPO 3022/0108 4900 -RA BKN010
PROB30
TEMPO 0108/0115 25015G25KT 4900 -SHRA BKN050TCU



MET'MAP, your aeronautical weather chart ! - Copyright ORBIFLY December 2007 - Disclaimer

ORBIFLY MET'MAP TEAM :

Programming & Development : Alexandra Zaïnal
Concept & original design : Baudouin d'Aumeries
Assistance for programming : Marc-Olivier Méhu
Technical & hardware support : Manuel Goepfert

Contact : metmap@orbifly.com




SOURCES & CREDITS :

   NOAA